createdAt,value
2017-05-04T00:00:39.166Z,97.90
2017-05-04T00:03:07.548Z,97.90
2017-05-04T00:05:35.833Z,98.00
2017-05-04T00:08:04.149Z,97.80
2017-05-04T00:10:33.178Z,97.90
2017-05-04T00:13:01.465Z,97.90
2017-05-04T00:15:29.795Z,97.70
2017-05-04T00:17:58.829Z,97.80
2017-05-04T00:20:27.121Z,97.60
2017-05-04T00:22:55.507Z,97.60
2017-05-04T00:25:23.795Z,97.70
2017-05-04T00:27:52.166Z,97.60
2017-05-04T00:30:20.478Z,97.60
2017-05-04T00:32:49.536Z,97.60
2017-05-04T00:35:17.833Z,97.50
2017-05-04T00:37:46.188Z,97.50
2017-05-04T00:40:14.564Z,97.40
2017-05-04T00:42:42.859Z,97.40
2017-05-04T00:45:11.227Z,97.60
2017-05-04T00:47:39.809Z,97.50
2017-05-04T00:50:08.187Z,97.40
2017-05-04T00:52:36.482Z,97.40
2017-05-04T00:55:04.913Z,97.50
2017-05-04T00:57:33.221Z,97.40
2017-05-04T01:00:01.523Z,97.40
2017-05-04T01:02:30.086Z,97.40
2017-05-04T01:04:58.375Z,97.40
2017-05-04T01:07:26.738Z,97.40
2017-05-04T01:09:55.113Z,97.30
2017-05-04T01:12:23.401Z,97.30
2017-05-04T01:14:51.725Z,97.10
2017-05-04T01:17:21.179Z,97.20
2017-05-04T01:19:49.473Z,97.20
2017-05-04T01:22:17.829Z,97.00
2017-05-04T01:24:46.149Z,97.10
2017-05-04T01:27:15.301Z,97.10
2017-05-04T01:29:43.997Z,97.00
2017-05-04T01:32:12.471Z,97.00
2017-05-04T01:34:40.762Z,97.00
2017-05-04T01:37:09.337Z,97.00
2017-05-04T01:39:37.621Z,97.00
2017-05-04T01:42:05.911Z,96.90
2017-05-04T01:44:34.478Z,97.00
2017-05-04T01:47:02.806Z,96.90
2017-05-04T01:49:31.102Z,97.00
2017-05-04T01:51:59.422Z,96.90
2017-05-04T01:54:27.711Z,97.40
2017-05-04T01:56:56.736Z,97.50
2017-05-04T01:59:25.249Z,97.40
2017-05-04T02:01:53.536Z,97.00
2017-05-04T02:04:21.811Z,97.00
2017-05-04T02:06:50.122Z,97.50
2017-05-04T02:09:19.133Z,97.60
2017-05-04T02:11:47.416Z,97.50
2017-05-04T02:14:15.723Z,97.60
2017-05-04T02:16:44.011Z,97.60
2017-05-04T02:19:12.327Z,97.20
2017-05-04T02:21:41.348Z,97.20
2017-05-04T02:24:09.625Z,97.10
2017-05-04T02:26:37.937Z,97.10
2017-05-04T02:29:06.212Z,97.10
2017-05-04T02:31:34.496Z,97.20
2017-05-04T02:34:02.968Z,97.00
2017-05-04T02:36:31.250Z,97.10
2017-05-04T02:38:59.526Z,97.00
2017-05-04T02:41:27.852Z,97.10
2017-05-04T02:43:56.136Z,97.10
2017-05-04T02:46:24.412Z,96.90
2017-05-04T02:48:52.868Z,97.00
2017-05-04T02:51:21.143Z,97.00
2017-05-04T02:53:49.423Z,97.00
2017-05-04T02:56:17.844Z,97.00
2017-05-04T02:58:46.115Z,97.00
2017-05-04T03:01:14.388Z,97.10
2017-05-04T03:03:42.716Z,97.00
2017-05-04T03:06:10.992Z,97.50
2017-05-04T03:08:39.268Z,97.40
2017-05-04T03:11:07.572Z,97.60
2017-05-04T03:13:36.584Z,97.60
2017-05-04T03:16:04.859Z,97.50
2017-05-04T03:18:33.443Z,97.60
2017-05-04T03:21:01.725Z,97.10
2017-05-04T03:23:29.997Z,97.60
2017-05-04T03:25:58.411Z,97.60
2017-05-04T03:28:26.679Z,97.60
2017-05-04T03:30:54.957Z,97.50
2017-05-04T03:33:23.967Z,97.50
2017-05-04T03:35:52.240Z,97.40
2017-05-04T03:38:20.511Z,97.40
2017-05-04T03:40:49.063Z,97.40
2017-05-04T03:43:17.337Z,97.40
2017-05-04T03:45:45.611Z,97.20
2017-05-04T03:48:13.912Z,97.30
2017-05-04T03:50:42.187Z,97.30
2017-05-04T03:53:10.492Z,97.30
2017-05-04T03:55:38.768Z,97.30
2017-05-04T03:58:07.044Z,97.00
2017-05-04T04:00:35.348Z,96.80
2017-05-04T04:03:03.616Z,96.90
2017-05-04T04:05:31.979Z,96.70
2017-05-04T04:08:00.455Z,96.70
2017-05-04T04:10:28.731Z,96.90
2017-05-04T04:12:57.008Z,96.70
2017-05-04T04:15:25.690Z,96.60
2017-05-04T04:17:53.969Z,96.40
2017-05-04T04:20:22.241Z,96.20
2017-05-04T04:22:50.752Z,96.40
2017-05-04T04:25:19.024Z,96.40
2017-05-04T04:27:47.300Z,96.40
2017-05-04T04:30:15.819Z,96.20
2017-05-04T04:32:44.091Z,95.70
2017-05-04T04:35:13.104Z,95.90
2017-05-04T04:37:41.419Z,95.80
2017-05-04T04:40:09.698Z,95.70
2017-05-04T04:42:37.969Z,95.70
2017-05-04T04:45:06.280Z,95.40
2017-05-04T04:47:35.302Z,95.50
2017-05-04T04:50:04.016Z,95.30
2017-05-04T04:52:32.287Z,95.00
2017-05-04T04:55:00.559Z,95.00
2017-05-04T04:57:29.137Z,94.60
2017-05-04T04:59:57.417Z,94.50
2017-05-04T05:02:25.691Z,94.50
2017-05-04T05:04:54.496Z,94.30
2017-05-04T05:07:22.768Z,94.40
2017-05-04T05:09:51.039Z,94.20
2017-05-04T05:12:19.363Z,94.20
2017-05-04T05:14:47.632Z,93.90
2017-05-04T05:17:15.903Z,93.30
2017-05-04T05:19:44.227Z,93.40
2017-05-04T05:22:12.503Z,93.20
2017-05-04T05:24:40.776Z,93.30
2017-05-04T05:27:09.101Z,93.10
2017-05-04T05:29:37.379Z,93.10
2017-05-04T05:32:05.648Z,93.20
2017-05-04T05:34:33.972Z,92.80
2017-05-04T05:37:02.983Z,93.00
2017-05-04T05:39:31.299Z,92.80
2017-05-04T05:41:59.691Z,92.90
2017-05-04T05:44:27.964Z,92.80
2017-05-04T05:46:56.239Z,92.30
2017-05-04T05:49:24.765Z,92.60
2017-05-04T05:51:53.780Z,92.60
2017-05-04T05:54:22.064Z,92.30
2017-05-04T05:56:50.361Z,92.40
2017-05-04T05:59:18.633Z,92.00
2017-05-04T06:01:47.018Z,91.90
2017-05-04T06:04:15.287Z,91.80
2017-05-04T06:06:43.556Z,92.00
2017-05-04T06:09:11.864Z,91.90
2017-05-04T06:11:40.136Z,91.80
2017-05-04T06:14:08.408Z,91.50
2017-05-04T06:16:36.807Z,91.10
2017-05-04T06:19:05.084Z,91.00
2017-05-04T06:21:33.355Z,91.20
2017-05-04T06:24:01.760Z,90.80
2017-05-04T06:26:30.787Z,90.40
2017-05-04T06:28:59.063Z,89.70
2017-05-04T06:31:27.559Z,89.20
2017-05-04T06:33:55.835Z,88.70
2017-05-04T06:36:24.119Z,88.10
2017-05-04T06:38:52.444Z,87.50
2017-05-04T06:41:21.464Z,87.70
2017-05-04T06:43:49.739Z,86.70
2017-05-04T06:46:18.248Z,86.10
2017-05-04T06:48:46.528Z,85.70
2017-05-04T06:51:14.807Z,85.90
2017-05-04T06:53:43.124Z,84.70
2017-05-04T06:56:12.145Z,83.20
2017-05-04T06:58:40.420Z,82.30
2017-05-04T07:01:08.723Z,81.70
2017-05-04T07:03:36.991Z,79.60
2017-05-04T07:06:05.684Z,78.60
2017-05-04T07:08:33.996Z,79.10
2017-05-04T07:11:02.288Z,79.00
2017-05-04T07:13:31.957Z,78.50
2017-05-04T07:16:00.272Z,77.10
2017-05-04T07:18:29.287Z,77.30
2017-05-04T07:20:57.564Z,77.60
2017-05-04T07:23:26.290Z,74.40
2017-05-04T07:25:54.565Z,73.70
2017-05-04T07:28:22.844Z,73.30
2017-05-04T07:30:51.191Z,74.50
2017-05-04T07:33:19.501Z,72.70
2017-05-04T07:35:47.780Z,73.40
2017-05-04T07:38:16.085Z,74.30
2017-05-04T07:40:44.364Z,72.60
2017-05-04T07:43:12.643Z,72.50
2017-05-04T07:45:40.988Z,72.10
2017-05-04T07:48:09.359Z,72.80
2017-05-04T07:50:37.847Z,73.30
2017-05-04T07:53:06.124Z,72.00
2017-05-04T07:55:34.399Z,72.10
2017-05-04T07:58:02.716Z,72.10
2017-05-04T08:00:31.728Z,71.70
2017-05-04T08:03:00.025Z,70.40
2017-05-04T08:05:28.535Z,71.40
2017-05-04T08:07:56.808Z,70.60
2017-05-04T08:10:25.084Z,70.70
2017-05-04T08:12:53.670Z,69.50
2017-05-04T08:15:21.946Z,68.20
2017-05-04T08:17:50.223Z,69.20
2017-05-04T08:20:18.564Z,69.00
2017-05-04T08:22:46.835Z,69.40
2017-05-04T08:25:15.108Z,69.60
2017-05-04T08:27:44.536Z,68.40
2017-05-04T08:30:12.811Z,67.80
2017-05-04T08:32:41.087Z,68.90
2017-05-04T08:35:09.499Z,68.80
2017-05-04T08:37:37.776Z,68.50
2017-05-04T08:40:06.052Z,68.30
2017-05-04T08:42:34.520Z,68.10
2017-05-04T08:45:02.791Z,67.70
2017-05-04T08:47:31.071Z,67.10
2017-05-04T08:49:59.394Z,67.60
2017-05-04T08:52:28.408Z,66.40
2017-05-04T08:54:56.688Z,66.50
2017-05-04T08:57:25.153Z,66.50
2017-05-04T08:59:54.173Z,65.20
2017-05-04T09:02:22.448Z,66.30
2017-05-04T09:04:50.963Z,66.30
2017-05-04T09:07:19.236Z,66.30
2017-05-04T09:09:47.516Z,65.80
2017-05-04T09:12:15.815Z,65.50
2017-05-04T09:14:44.093Z,64.50
2017-05-04T09:17:12.372Z,64.40
2017-05-04T09:19:40.825Z,65.50
2017-05-04T09:22:09.105Z,63.50
2017-05-04T09:24:37.391Z,63.20
2017-05-04T09:27:05.739Z,63.00
2017-05-04T09:29:34.018Z,64.00
2017-05-04T09:32:02.293Z,64.20
2017-05-04T09:34:30.789Z,65.00
2017-05-04T09:36:59.064Z,64.10
2017-05-04T09:39:27.340Z,64.40
2017-05-04T09:41:55.825Z,64.60
2017-05-04T09:44:24.116Z,64.80
2017-05-04T09:46:52.391Z,65.30
2017-05-04T09:49:20.964Z,64.90
2017-05-04T09:51:49.248Z,66.00
2017-05-04T09:54:17.523Z,65.10
2017-05-04T09:56:46.205Z,64.40
2017-05-04T09:59:14.509Z,64.60
2017-05-04T10:01:42.799Z,65.70
2017-05-04T10:04:11.843Z,65.00
2017-05-04T10:06:40.120Z,65.00
2017-05-04T10:09:08.423Z,65.40
2017-05-04T10:11:36.699Z,64.90
2017-05-04T10:14:04.976Z,65.30
2017-05-04T10:16:33.436Z,65.40
2017-05-04T10:19:01.719Z,64.60
2017-05-04T10:21:29.996Z,64.80
2017-05-04T10:23:58.653Z,64.50
2017-05-04T10:26:26.936Z,64.40
2017-05-04T10:28:55.213Z,63.90
2017-05-04T10:31:23.536Z,64.30
2017-05-04T10:33:51.814Z,64.70
2017-05-04T10:36:20.087Z,64.70
2017-05-04T10:38:48.391Z,64.10
2017-05-04T10:41:17.407Z,64.10
2017-05-04T10:43:45.691Z,64.90
2017-05-04T10:46:14.813Z,64.00
2017-05-04T10:48:43.095Z,64.00
2017-05-04T10:51:11.369Z,63.10
2017-05-04T10:53:39.696Z,62.40
2017-05-04T10:56:08.716Z,62.70
2017-05-04T10:58:36.999Z,62.40
2017-05-04T11:01:05.492Z,61.80
2017-05-04T11:03:33.768Z,61.40
2017-05-04T11:06:02.052Z,60.80
2017-05-04T11:08:30.628Z,61.50
2017-05-04T11:10:58.904Z,60.40
2017-05-04T11:13:27.395Z,60.40
2017-05-04T11:15:56.385Z,59.50
2017-05-04T11:18:24.741Z,59.20
2017-05-04T11:20:53.052Z,59.20
2017-05-04T11:23:21.371Z,59.20
2017-05-04T11:25:50.392Z,59.10
2017-05-04T11:28:18.664Z,59.10
2017-05-04T11:30:46.983Z,59.30
2017-05-04T11:33:15.260Z,59.10
2017-05-04T11:35:43.537Z,59.30
2017-05-04T11:38:12.100Z,58.60
2017-05-04T11:40:40.379Z,59.00
2017-05-04T11:43:08.663Z,59.00
2017-05-04T11:45:37.240Z,59.00
2017-05-04T11:48:05.548Z,59.00
2017-05-04T11:50:33.828Z,58.90
2017-05-04T11:53:02.167Z,59.00
2017-05-04T11:55:31.181Z,59.90
2017-05-04T11:57:59.460Z,59.60
2017-05-04T12:00:28.067Z,59.10
2017-05-04T12:02:56.357Z,59.00
2017-05-04T12:05:24.632Z,59.00
2017-05-04T12:07:53.150Z,59.10
2017-05-04T12:10:21.423Z,59.40
2017-05-04T12:12:49.697Z,59.60
2017-05-04T12:15:18.004Z,59.10
2017-05-04T12:17:46.279Z,59.20
2017-05-04T12:20:14.579Z,59.30
2017-05-04T12:22:43.943Z,60.00
2017-05-04T12:25:13.652Z,59.90
2017-05-04T12:27:43.261Z,59.90
2017-05-04T12:30:11.842Z,59.40
2017-05-04T12:32:41.487Z,59.80
2017-05-04T12:35:09.933Z,60.00
2017-05-04T12:37:38.214Z,59.90
2017-05-04T12:40:06.498Z,60.70
2017-05-04T12:42:34.819Z,61.30
2017-05-04T12:45:03.450Z,62.60
2017-05-04T12:47:32.033Z,61.70
2017-05-04T12:50:00.720Z,61.70
2017-05-04T12:52:29.305Z,62.40
2017-05-04T12:54:58.196Z,61.40
2017-05-04T12:57:26.883Z,61.50
2017-05-04T12:59:55.568Z,61.50
2017-05-04T13:02:24.000Z,61.30
2017-05-04T13:04:52.838Z,61.90
2017-05-04T13:07:21.317Z,61.80
2017-05-04T13:09:49.837Z,61.50
2017-05-04T13:12:18.250Z,61.50
2017-05-04T13:14:46.765Z,61.60
2017-05-04T13:17:16.051Z,61.90
2017-05-04T13:19:45.609Z,62.10
2017-05-04T13:22:13.960Z,61.90
2017-05-04T13:24:42.879Z,62.10
2017-05-04T13:27:11.461Z,61.80
2017-05-04T13:29:39.944Z,61.00
2017-05-04T13:32:08.528Z,60.40
2017-05-04T13:34:37.317Z,60.30
2017-05-04T13:37:05.798Z,58.70
2017-05-04T13:39:34.280Z,58.40
2017-05-04T13:42:03.069Z,59.00
2017-05-04T13:44:31.652Z,58.90
2017-05-04T13:47:00.135Z,58.20
2017-05-04T13:49:28.719Z,57.60
2017-05-04T13:51:57.304Z,57.00
2017-05-04T13:54:25.867Z,57.10
2017-05-04T13:56:55.179Z,58.00
2017-05-04T13:59:24.324Z,57.90
2017-05-04T14:01:52.833Z,58.60
2017-05-04T14:04:21.415Z,59.00
2017-05-04T14:06:50.001Z,58.60
2017-05-04T14:09:18.300Z,58.50
2017-05-04T14:11:46.856Z,58.70
2017-05-04T14:14:15.131Z,58.90
2017-05-04T14:16:43.419Z,59.60
2017-05-04T14:19:11.727Z,59.80
2017-05-04T14:21:40.008Z,60.30
2017-05-04T14:24:08.317Z,59.30
2017-05-04T14:26:36.592Z,59.70
2017-05-04T14:29:04.868Z,60.00
2017-05-04T14:31:33.201Z,60.70
2017-05-04T14:34:02.217Z,60.10
2017-05-04T14:36:30.506Z,60.60
2017-05-04T14:38:58.832Z,60.80
2017-05-04T14:41:27.112Z,62.00
2017-05-04T14:43:55.396Z,61.80
2017-05-04T14:46:24.004Z,61.90
2017-05-04T14:48:52.301Z,61.00
2017-05-04T14:51:21.319Z,62.10
2017-05-04T14:53:49.632Z,61.20
2017-05-04T14:56:17.917Z,61.10
2017-05-04T14:58:46.206Z,61.30
2017-05-04T15:01:14.529Z,62.30
2017-05-04T15:03:43.549Z,62.30
2017-05-04T15:06:11.839Z,62.30
2017-05-04T15:08:40.159Z,62.30
2017-05-04T15:11:08.440Z,62.40
2017-05-04T15:13:37.048Z,62.90
2017-05-04T15:16:05.356Z,63.80
2017-05-04T15:18:33.634Z,63.60
2017-05-04T15:21:01.904Z,63.70
2017-05-04T15:23:30.509Z,64.40
2017-05-04T15:25:58.791Z,64.40
2017-05-04T15:28:27.067Z,65.00
2017-05-04T15:30:56.563Z,64.90
2017-05-04T15:33:24.844Z,65.60
2017-05-04T15:35:53.124Z,65.60
2017-05-04T15:38:21.429Z,65.60
2017-05-04T15:40:49.714Z,65.50
2017-05-04T15:43:18.775Z,65.80
2017-05-04T15:45:47.121Z,65.80
2017-05-04T15:48:15.400Z,66.70
2017-05-04T15:50:43.677Z,67.30
2017-05-04T15:53:11.981Z,67.20
2017-05-04T15:55:40.253Z,67.20
2017-05-04T15:58:08.524Z,67.60
2017-05-04T16:00:36.980Z,67.50
2017-05-04T16:03:05.260Z,67.40
2017-05-04T16:05:33.536Z,67.50
2017-05-04T16:08:02.049Z,67.50
2017-05-04T16:10:30.328Z,68.10
2017-05-04T16:12:58.603Z,68.10
2017-05-04T16:15:27.076Z,68.70
2017-05-04T16:17:55.352Z,69.30
2017-05-04T16:20:23.632Z,69.50
2017-05-04T16:22:52.212Z,70.30
2017-05-04T16:25:20.488Z,69.40
2017-05-04T16:27:48.761Z,69.40
2017-05-04T16:30:17.164Z,69.30
2017-05-04T16:32:45.448Z,69.30
2017-05-04T16:35:13.727Z,69.20
2017-05-04T16:37:42.040Z,69.30
2017-05-04T16:40:10.316Z,69.30
2017-05-04T16:42:38.588Z,69.60
2017-05-04T16:45:06.925Z,69.50
2017-05-04T16:47:35.944Z,70.20
2017-05-04T16:50:04.215Z,70.10
2017-05-04T16:52:32.525Z,70.10
2017-05-04T16:55:00.808Z,70.30
2017-05-04T16:57:29.138Z,70.70
2017-05-04T16:59:57.429Z,71.30
2017-05-04T17:02:25.712Z,70.70
2017-05-04T17:04:54.028Z,71.10
2017-05-04T17:07:22.317Z,71.20
2017-05-04T17:09:50.597Z,71.70
2017-05-04T17:12:18.908Z,71.70
2017-05-04T17:14:47.544Z,71.90
2017-05-04T17:17:15.843Z,72.40
2017-05-04T17:19:44.124Z,72.70
2017-05-04T17:22:12.427Z,73.10
2017-05-04T17:24:40.700Z,73.10
2017-05-04T17:27:09.874Z,73.10
2017-05-04T17:29:38.896Z,73.10
2017-05-04T17:32:07.171Z,73.30
2017-05-04T17:34:35.488Z,74.50
2017-05-04T17:37:03.760Z,74.80
2017-05-04T17:39:32.036Z,75.00
2017-05-04T17:42:00.352Z,74.50
2017-05-04T17:44:29.367Z,74.00
2017-05-04T17:46:57.639Z,74.00
2017-05-04T17:49:26.044Z,74.00
2017-05-04T17:51:54.316Z,74.20
2017-05-04T17:54:22.587Z,74.00
2017-05-04T17:56:51.271Z,74.00
2017-05-04T17:59:19.548Z,73.90
2017-05-04T18:01:47.821Z,73.90
2017-05-04T18:04:16.305Z,73.90
2017-05-04T18:06:44.576Z,73.70
2017-05-04T18:09:12.852Z,73.90
2017-05-04T18:11:41.151Z,73.80
2017-05-04T18:14:10.163Z,73.90
2017-05-04T18:16:38.435Z,74.00
2017-05-04T18:19:06.750Z,74.00
2017-05-04T18:21:35.031Z,74.00
2017-05-04T18:24:03.305Z,74.00
2017-05-04T18:26:31.648Z,73.90
2017-05-04T18:29:00.013Z,74.00
2017-05-04T18:31:28.288Z,74.00
2017-05-04T18:33:56.595Z,73.70
2017-05-04T18:36:24.867Z,73.90
2017-05-04T18:38:53.137Z,73.90
2017-05-04T18:41:21.444Z,73.90
2017-05-04T18:43:49.760Z,73.90
2017-05-04T18:46:18.035Z,73.90
2017-05-04T18:48:47.045Z,73.90
2017-05-04T18:51:15.360Z,73.90
2017-05-04T18:53:43.658Z,74.00
2017-05-04T18:56:12.151Z,74.00
2017-05-04T18:58:40.428Z,74.70
2017-05-04T19:01:08.699Z,74.30
2017-05-04T19:03:37.191Z,74.00
2017-05-04T19:06:05.472Z,74.10
2017-05-04T19:08:33.752Z,74.00
2017-05-04T19:11:02.069Z,74.00
2017-05-04T19:13:30.345Z,73.90
2017-05-04T19:15:58.611Z,74.00
2017-05-04T19:18:27.198Z,74.20
2017-05-04T19:20:55.467Z,74.00
2017-05-04T19:23:23.735Z,73.90
2017-05-04T19:25:52.043Z,73.90
2017-05-04T19:28:20.318Z,73.90
2017-05-04T19:30:48.592Z,73.80
2017-05-04T19:33:17.237Z,73.90
2017-05-04T19:35:45.507Z,74.00
2017-05-04T19:38:13.780Z,74.00
2017-05-04T19:40:42.396Z,74.00
2017-05-04T19:43:10.672Z,73.90
2017-05-04T19:45:38.944Z,73.90
2017-05-04T19:48:07.985Z,74.60
2017-05-04T19:50:36.260Z,74.10
2017-05-04T19:53:04.528Z,74.40
2017-05-04T19:55:32.828Z,74.50
2017-05-04T19:58:01.839Z,74.50
2017-05-04T20:00:30.135Z,74.70
2017-05-04T20:02:58.436Z,75.00
2017-05-04T20:05:26.735Z,75.70
2017-05-04T20:07:55.009Z,76.10
2017-05-04T20:10:23.303Z,76.70
2017-05-04T20:12:51.571Z,77.80
2017-05-04T20:15:19.831Z,78.10
2017-05-04T20:17:48.499Z,79.10
2017-05-04T20:20:16.760Z,79.90
2017-05-04T20:22:45.032Z,81.00
2017-05-04T20:25:13.639Z,81.60
2017-05-04T20:27:41.909Z,82.00
2017-05-04T20:30:10.179Z,82.70
2017-05-04T20:32:38.637Z,83.50
2017-05-04T20:35:06.900Z,84.00
2017-05-04T20:37:35.180Z,84.40
2017-05-04T20:40:03.671Z,84.70
2017-05-04T20:42:31.940Z,85.10
2017-05-04T20:45:00.216Z,86.30
2017-05-04T20:47:29.630Z,87.00
2017-05-04T20:49:57.893Z,87.50
2017-05-04T20:52:26.159Z,88.40
2017-05-04T20:54:54.455Z,89.20
2017-05-04T20:57:22.748Z,90.10
2017-05-04T20:59:51.023Z,90.10
2017-05-04T21:02:19.324Z,90.40
2017-05-04T21:04:47.623Z,90.60
2017-05-04T21:07:16.632Z,91.00
2017-05-04T21:09:45.456Z,91.20
2017-05-04T21:12:13.730Z,91.40
2017-05-04T21:14:42.008Z,91.90
2017-05-04T21:17:10.323Z,92.50
2017-05-04T21:19:38.596Z,93.10
2017-05-04T21:22:06.946Z,93.90
2017-05-04T21:24:35.268Z,94.80
2017-05-04T21:27:04.279Z,94.90
2017-05-04T21:29:32.559Z,95.40
2017-05-04T21:32:01.067Z,95.70
2017-05-04T21:34:29.343Z,95.90
2017-05-04T21:36:57.615Z,96.10
2017-05-04T21:39:25.933Z,96.30
2017-05-04T21:41:54.207Z,96.40
2017-05-04T21:44:22.522Z,96.60
2017-05-04T21:46:50.791Z,96.90
2017-05-04T21:49:19.805Z,97.00
2017-05-04T21:51:48.513Z,97.30
2017-05-04T21:54:16.779Z,97.60
2017-05-04T21:56:45.052Z,97.70
2017-05-04T21:59:13.647Z,97.80
2017-05-04T22:01:41.920Z,97.90
2017-05-04T22:04:10.192Z,98.00
2017-05-04T22:06:38.827Z,98.00
2017-05-04T22:09:07.099Z,98.00
2017-05-04T22:11:35.372Z,98.00
2017-05-04T22:14:03.898Z,98.30
2017-05-04T22:16:32.167Z,97.80
2017-05-04T22:19:00.439Z,97.90
2017-05-04T22:21:28.749Z,97.90
2017-05-04T22:23:57.025Z,97.90
2017-05-04T22:26:25.300Z,97.90
2017-05-04T22:28:53.628Z,98.20
2017-05-04T22:31:21.899Z,98.20
2017-05-04T22:33:50.175Z,98.50
2017-05-04T22:36:19.287Z,98.50
2017-05-04T22:38:47.559Z,98.40
2017-05-04T22:41:15.836Z,98.40
2017-05-04T22:43:44.148Z,98.50
2017-05-04T22:46:12.419Z,98.50
2017-05-04T22:48:40.693Z,98.50
2017-05-04T22:51:08.991Z,98.50
2017-05-04T22:53:37.260Z,98.40
2017-05-04T22:56:05.531Z,98.50
2017-05-04T22:58:33.936Z,98.60
2017-05-04T23:01:02.208Z,98.40
2017-05-04T23:03:30.487Z,98.60
2017-05-04T23:05:58.789Z,98.60
2017-05-04T23:08:27.800Z,98.50
2017-05-04T23:10:56.071Z,98.50
2017-05-04T23:13:24.394Z,98.80
2017-05-04T23:15:52.672Z,98.40
2017-05-04T23:18:20.943Z,98.30
2017-05-04T23:20:49.244Z,98.30
2017-05-04T23:23:17.540Z,98.30
2017-05-04T23:25:46.546Z,98.40
2017-05-04T23:28:14.848Z,98.40
2017-05-04T23:30:43.115Z,98.50
2017-05-04T23:33:11.383Z,98.70
2017-05-04T23:35:39.692Z,98.70
2017-05-04T23:38:07.964Z,98.60
2017-05-04T23:40:36.232Z,98.70
2017-05-04T23:43:04.542Z,98.70
2017-05-04T23:45:32.811Z,98.70
2017-05-04T23:48:01.083Z,98.50
2017-05-04T23:50:29.553Z,98.70
2017-05-04T23:52:57.819Z,98.70
2017-05-04T23:55:26.091Z,98.60
2017-05-04T23:57:54.559Z,98.70
